Airfield :
LOGIN :

Register | Disclaimer

   EN    FR    IT 

 










Legend :    VFR   Marginal VFR   IFR   Intensive IFR   Very Intensive IFR
Visi :
Ceiling :
>= 8 km
>= 3000ft
5 to 8 km
1000 to 3000 ft
1500m to 5 km
500 to 1000 ft
800 to 1500m
200 to 500 ft
< 800m
< 200 ft
Symbols :   Thunderstorms  Fog  Heavy snow  Heavy precipitations  Wind > 20 kt
SIGMETs :     Misc.  Thunderstorms  Icing  Turbulence  Mountain Waves  Volcanic Ashes







- Airport Elevation : 17 ft
- IATA code : CPH


EKCH - København - Kastrup (Copenhagen)

CURRENT METAR :
  • 241020Z AUTO 22015KT 9999 SCT140/// 18/08 Q1010 NOSIG

EXPIRED METARs :
  • 240950Z AUTO 23014KT 9999 FEW140/// 17/08 Q1010 NOSIG
  • 240920Z AUTO 22011KT 9999 NCD 18/08 Q1010 NOSIG
  • 240850Z AUTO 23011KT 9999 NCD 17/07 Q1011 NOSIG
  • 240820Z AUTO 22013KT 9999 NCD 16/06 Q1011 NOSIG
  • 240750Z AUTO 24012KT 210V270 9999 NCD 15/06 Q1011 NOSIG

TAF AMD TAF EKCH
Valid from the 24 at 06:00 until the 25 at 06:00 UTC


240646Z 2406/2506 20012KT 9999 FEW030
TEMPO 2410/2414 21015G25KT
BECMG 2414/2416 28010KT
TEMPO 2504/2506 BKN012
No reported NOTAMs for that airfield.



MET'MAP, your aeronautical weather chart ! - Copyright ORBIFLY December 2007 - Disclaimer

ORBIFLY MET'MAP TEAM :

Programming & Development : Alexandra Zaïnal
Concept & Development : Baudouin d'Aumeries
Co-Development & Prog : Marc-Olivier Méhu
Technical & hardware support : Manuel Goepfert

Contact : metmap@orbifly.com




SOURCES & CREDITS :

   NOAA